createdAt,value
2022-10-09T00:01:50.102Z,3.50
2022-10-09T00:06:55.578Z,3.97
2022-10-09T00:12:03.579Z,3.45
2022-10-09T00:17:09.055Z,3.73
2022-10-09T00:22:15.058Z,3.60
2022-10-09T00:27:24.787Z,4.03
2022-10-09T00:32:30.778Z,3.80
2022-10-09T00:37:35.987Z,3.60
2022-10-09T00:42:45.783Z,3.88
2022-10-09T00:47:54.251Z,3.90
2022-10-09T00:53:03.814Z,3.50
2022-10-09T00:58:12.542Z,3.20
2022-10-09T01:03:18.135Z,3.33
2022-10-09T01:08:28.434Z,3.47
2022-10-09T01:13:45.487Z,3.57
2022-10-09T01:18:56.551Z,3.28
2022-10-09T01:24:11.337Z,3.58
2022-10-09T01:29:22.684Z,3.33
2022-10-09T01:34:29.822Z,3.05
2022-10-09T01:39:36.783Z,3.87
2022-10-09T01:44:45.659Z,3.50
2022-10-09T01:49:57.333Z,3.17
2022-10-09T01:55:19.108Z,3.20
2022-10-09T02:00:27.677Z,3.08
2022-10-09T02:05:34.486Z,3.43
2022-10-09T02:10:40.903Z,3.58
2022-10-09T02:15:51.707Z,3.53
2022-10-09T02:21:03.190Z,3.77
2022-10-09T02:26:09.031Z,3.13
2022-10-09T02:31:25.719Z,3.20
2022-10-09T02:36:31.579Z,3.33
2022-10-09T02:41:38.052Z,3.53
2022-10-09T02:46:46.143Z,3.57
2022-10-09T02:51:52.194Z,3.65
2022-10-09T02:56:57.546Z,3.55
2022-10-09T03:02:07.198Z,3.40
2022-10-09T03:07:12.797Z,3.10
2022-10-09T03:12:21.365Z,3.30
2022-10-09T03:17:29.488Z,3.58
2022-10-09T03:22:34.820Z,3.50
2022-10-09T03:27:40.304Z,3.20
2022-10-09T03:32:48.685Z,3.33
2022-10-09T03:37:54.063Z,3.30
2022-10-09T03:42:59.824Z,3.33
2022-10-09T03:48:08.173Z,3.40
2022-10-09T03:53:15.610Z,4.70
2022-10-09T03:58:20.803Z,4.20
2022-10-09T04:03:29.924Z,3.77
2022-10-09T04:08:35.108Z,3.45
2022-10-09T04:13:40.666Z,3.30
2022-10-09T04:18:48.493Z,3.30
2022-10-09T04:23:55.027Z,3.15
2022-10-09T04:29:00.715Z,3.67
2022-10-09T04:34:08.885Z,3.00
2022-10-09T04:39:15.063Z,3.22
2022-10-09T04:44:20.327Z,3.30
2022-10-09T04:49:28.510Z,3.75
2022-10-09T04:54:34.187Z,3.40
2022-10-09T04:59:39.750Z,3.33
2022-10-09T05:04:49.491Z,3.15
2022-10-09T05:09:55.665Z,2.90
2022-10-09T05:15:01.039Z,3.20
2022-10-09T05:20:09.821Z,3.30
2022-10-09T05:25:15.496Z,3.30
2022-10-09T05:30:21.191Z,3.35
2022-10-09T05:35:30.110Z,4.03
2022-10-09T05:40:35.283Z,3.63
2022-10-09T05:45:40.762Z,3.23
2022-10-09T05:50:49.441Z,3.55
2022-10-09T05:55:54.817Z,3.65
2022-10-09T06:01:03.118Z,3.13
2022-10-09T06:06:11.900Z,3.85
2022-10-09T06:11:19.510Z,3.50
2022-10-09T06:16:27.402Z,3.75
2022-10-09T06:21:35.575Z,3.28
2022-10-09T06:26:41.129Z,3.53
2022-10-09T06:31:46.539Z,3.80
2022-10-09T06:36:54.557Z,3.77
2022-10-09T06:42:00.093Z,3.75
2022-10-09T06:47:17.347Z,4.30
2022-10-09T06:52:25.378Z,3.50
2022-10-09T06:57:30.633Z,3.80
2022-10-09T07:02:41.815Z,3.90
2022-10-09T07:07:51.831Z,3.83
2022-10-09T07:12:57.449Z,4.28
2022-10-09T07:18:04.890Z,3.90
2022-10-09T07:23:12.875Z,3.45
2022-10-09T07:28:18.937Z,3.33
2022-10-09T07:33:24.686Z,3.33
2022-10-09T07:38:33.199Z,3.47
2022-10-09T07:43:39.038Z,3.00
2022-10-09T07:48:44.743Z,2.80
2022-10-09T07:53:53.259Z,3.00
2022-10-09T07:59:00.888Z,3.00
2022-10-09T08:04:06.767Z,2.75
2022-10-09T08:09:14.857Z,3.00
2022-10-09T08:14:20.277Z,2.90
2022-10-09T08:19:25.487Z,2.67
2022-10-09T08:24:33.825Z,3.50
2022-10-09T08:29:42.512Z,2.42
2022-10-09T08:34:47.915Z,2.33
2022-10-09T08:39:57.936Z,2.55
2022-10-09T08:45:03.274Z,3.47
2022-10-09T08:50:16.214Z,2.78
2022-10-09T08:55:28.654Z,2.33
2022-10-09T09:00:42.016Z,2.17
2022-10-09T09:05:54.787Z,2.47
2022-10-09T09:11:21.247Z,2.17
2022-10-09T09:16:36.422Z,2.27
2022-10-09T09:21:48.122Z,2.28
2022-10-09T09:26:59.201Z,2.27
2022-10-09T09:32:05.826Z,2.20
2022-10-09T09:37:14.119Z,2.45
2022-10-09T09:42:23.504Z,2.80
2022-10-09T09:47:36.571Z,1.80
2022-10-09T09:52:46.413Z,1.70
2022-10-09T09:57:54.274Z,1.90
2022-10-09T10:03:12.021Z,2.00
2022-10-09T10:08:24.716Z,2.08
2022-10-09T10:13:38.342Z,2.10
2022-10-09T10:18:45.706Z,2.03
2022-10-09T10:23:56.262Z,1.67
2022-10-09T10:29:08.923Z,2.07
2022-10-09T10:34:22.633Z,1.92
2022-10-09T10:39:34.899Z,1.60
2022-10-09T10:44:53.543Z,1.67
2022-10-09T10:49:59.036Z,1.80
2022-10-09T10:55:26.867Z,1.83
2022-10-09T11:00:39.494Z,1.67
2022-10-09T11:05:58.761Z,1.75
2022-10-09T11:11:09.301Z,1.13
2022-10-09T11:16:32.998Z,1.43
2022-10-09T11:21:52.704Z,1.40
2022-10-09T11:27:04.959Z,1.27
2022-10-09T11:32:20.203Z,1.77
2022-10-09T11:37:31.223Z,1.33
2022-10-09T11:42:37.086Z,1.37
2022-10-09T11:47:49.784Z,1.10
2022-10-09T11:53:00.399Z,1.27
2022-10-09T11:58:16.590Z,1.50
2022-10-09T12:03:33.875Z,1.07
2022-10-09T12:08:41.277Z,1.20
2022-10-09T12:13:51.619Z,1.42
2022-10-09T12:19:00.850Z,2.07
2022-10-09T12:24:06.921Z,1.25
2022-10-09T12:29:21.162Z,1.23
2022-10-09T12:34:33.314Z,1.40
2022-10-09T12:39:38.921Z,1.20
2022-10-09T12:44:44.673Z,2.47
2022-10-09T12:50:05.085Z,1.60
2022-10-09T12:55:19.460Z,1.45
2022-10-09T13:00:25.012Z,1.10
2022-10-09T13:05:41.825Z,0.77
2022-10-09T13:10:47.618Z,1.65
2022-10-09T13:16:02.497Z,1.07
2022-10-09T13:21:25.131Z,1.00
2022-10-09T13:26:32.339Z,1.20
2022-10-09T13:31:39.941Z,1.37
2022-10-09T13:36:48.516Z,0.90
2022-10-09T13:41:57.394Z,1.10
2022-10-09T13:47:02.947Z,1.83
2022-10-09T13:52:11.363Z,1.10
2022-10-09T13:57:17.227Z,0.93
2022-10-09T14:02:22.925Z,1.00
2022-10-09T14:07:30.707Z,0.77
2022-10-09T14:12:36.151Z,0.90
2022-10-09T14:17:41.594Z,0.90
2022-10-09T14:22:50.835Z,0.97
2022-10-09T14:27:56.250Z,0.95
2022-10-09T14:33:01.755Z,1.02
2022-10-09T14:38:09.760Z,0.90
2022-10-09T14:43:15.767Z,0.90
2022-10-09T14:48:21.395Z,0.73
2022-10-09T14:53:29.471Z,0.77
2022-10-09T14:58:35.701Z,0.73
2022-10-09T15:03:41.182Z,0.80
2022-10-09T15:08:50.265Z,1.03
2022-10-09T15:13:56.202Z,1.20
2022-10-09T15:19:01.680Z,0.80
2022-10-09T15:24:10.140Z,0.90
2022-10-09T15:29:16.044Z,1.10
2022-10-09T15:34:22.346Z,0.88
2022-10-09T15:39:30.302Z,1.23
2022-10-09T15:44:35.691Z,1.67
2022-10-09T15:49:41.293Z,1.90
2022-10-09T15:54:49.385Z,1.23
2022-10-09T15:59:54.577Z,0.98
2022-10-09T16:05:00.605Z,1.70
2022-10-09T16:10:09.805Z,1.43
2022-10-09T16:15:15.567Z,1.10
2022-10-09T16:20:21.261Z,1.30
2022-10-09T16:25:29.317Z,1.77
2022-10-09T16:30:35.757Z,1.13
2022-10-09T16:35:41.036Z,1.10
2022-10-09T16:41:07.353Z,1.40
2022-10-09T16:46:14.330Z,1.20
2022-10-09T16:51:22.196Z,1.35
2022-10-09T16:56:33.186Z,1.33
2022-10-09T17:01:43.800Z,1.15
2022-10-09T17:06:49.330Z,1.33
2022-10-09T17:11:57.340Z,2.20
2022-10-09T17:17:03.037Z,2.00
2022-10-09T17:22:08.918Z,1.97
2022-10-09T17:27:17.212Z,2.10
2022-10-09T17:32:22.969Z,4.57
2022-10-09T17:37:28.269Z,4.10
2022-10-09T17:42:36.501Z,8.20
2022-10-09T17:47:41.886Z,5.45
2022-10-09T17:52:47.632Z,5.47
2022-10-09T17:57:55.751Z,4.37
2022-10-09T18:03:01.380Z,3.90
2022-10-09T18:08:06.784Z,5.53
2022-10-09T18:13:15.687Z,3.53
2022-10-09T18:18:21.528Z,3.00
2022-10-09T18:23:26.925Z,2.53
2022-10-09T18:28:35.179Z,1.80
2022-10-09T18:33:40.756Z,1.98
2022-10-09T18:38:46.226Z,2.10
2022-10-09T18:43:56.283Z,1.87
2022-10-09T18:49:01.666Z,2.10
2022-10-09T18:54:13.226Z,2.40
2022-10-09T18:59:25.775Z,1.97
2022-10-09T19:04:31.290Z,2.00
2022-10-09T19:09:38.452Z,1.80
2022-10-09T19:14:47.563Z,2.30
2022-10-09T19:19:53.291Z,4.03
2022-10-09T19:24:59.019Z,3.93
2022-10-09T19:30:08.472Z,7.30
2022-10-09T19:35:15.344Z,4.95
2022-10-09T19:40:20.982Z,3.27
2022-10-09T19:45:29.079Z,2.60
2022-10-09T19:50:34.668Z,2.08
2022-10-09T19:55:40.612Z,2.70
2022-10-09T20:00:49.667Z,2.15
2022-10-09T20:05:55.123Z,2.50
2022-10-09T20:11:03.355Z,2.27
2022-10-09T20:16:14.107Z,1.75
2022-10-09T20:21:20.995Z,1.85
2022-10-09T20:26:26.975Z,2.07
2022-10-09T20:31:34.973Z,2.38
2022-10-09T20:36:42.114Z,2.03
2022-10-09T20:41:47.455Z,1.90
2022-10-09T20:46:56.946Z,2.28
2022-10-09T20:52:02.372Z,2.40
2022-10-09T20:57:07.999Z,2.20
2022-10-09T21:02:16.335Z,2.60
2022-10-09T21:07:21.914Z,2.57
2022-10-09T21:12:27.648Z,2.60
2022-10-09T21:17:36.540Z,2.35
2022-10-09T21:22:41.987Z,2.70
2022-10-09T21:27:47.439Z,3.00
2022-10-09T21:32:55.807Z,3.35
2022-10-09T21:38:01.281Z,3.40
2022-10-09T21:43:07.419Z,2.72
2022-10-09T21:48:19.825Z,2.72
2022-10-09T21:53:25.212Z,2.50
2022-10-09T21:58:30.622Z,2.22
2022-10-09T22:03:39.890Z,2.60
2022-10-09T22:08:45.472Z,2.77
2022-10-09T22:13:50.877Z,2.70
2022-10-09T22:18:59.105Z,2.50
2022-10-09T22:24:04.922Z,2.90
2022-10-09T22:29:10.571Z,2.40
2022-10-09T22:34:19.270Z,2.60
2022-10-09T22:39:24.661Z,3.00
2022-10-09T22:44:30.270Z,2.30
2022-10-09T22:49:38.369Z,2.60
2022-10-09T22:54:43.944Z,2.33
2022-10-09T22:59:49.241Z,2.57
2022-10-09T23:04:57.423Z,2.30
2022-10-09T23:10:02.862Z,2.40
2022-10-09T23:15:09.511Z,2.70
2022-10-09T23:20:17.494Z,3.42
2022-10-09T23:25:22.854Z,2.00
2022-10-09T23:30:28.081Z,2.67
2022-10-09T23:35:36.860Z,2.90
2022-10-09T23:40:42.037Z,2.47
2022-10-09T23:45:47.555Z,2.30
2022-10-09T23:50:56.405Z,1.98
2022-10-09T23:56:01.998Z,2.07
